Jamesburg, New Jersey
Current Conditions -  °F | °C
As of 5:26 PM on Monday 26 Jan 2015 (Local Time) from KTTN Reporting Station
Light Snow Light Snow  
Wind Chill: 11°   Ceiling: 1400
Heat Index: 24°   Visibility: 3mi
Dew Point: 19°   Wind: 17mph
Humidity: 81%   Direction: 40°NE
Pressure: 29.78"   Gusts: 26mph
Location:  40.35°N, 74.44°W
Report Text: KTTN 262226Z 04015G23KT 3SM -SN BKN014 BKN023 OVC049 M04/M07 A2978 RMK AO2 P0000 T10441072
Loading
Personal Weather Stations






























Interactive Weather Map New forecast layout! Learn more

10-Day Weather Forecast

Advertisements
Track Severe Weather on mobile